sensor_id;sensor_type;location;lat;lon;timestamp;P1;durP1;ratioP1;P2;durP2;ratioP2
72037;SDS011;59900;50.788;12.904;2023-09-19T00:02:12;4.07;;;1.80;;
72037;SDS011;59900;50.788;12.904;2023-09-19T00:04:37;5.23;;;2.00;;
72037;SDS011;59900;50.788;12.904;2023-09-19T00:07:04;3.97;;;1.92;;
72037;SDS011;59900;50.788;12.904;2023-09-19T00:09:30;5.53;;;2.25;;
72037;SDS011;59900;50.788;12.904;2023-09-19T00:11:55;3.40;;;1.60;;
72037;SDS011;59900;50.788;12.904;2023-09-19T00:14:20;3.60;;;1.70;;
72037;SDS011;59900;50.788;12.904;2023-09-19T00:16:49;4.32;;;2.00;;
72037;SDS011;59900;50.788;12.904;2023-09-19T00:19:14;4.93;;;1.80;;
72037;SDS011;59900;50.788;12.904;2023-09-19T00:21:41;5.78;;;1.55;;
72037;SDS011;59900;50.788;12.904;2023-09-19T00:24:06;4.73;;;1.77;;
72037;SDS011;59900;50.788;12.904;2023-09-19T00:26:33;4.15;;;1.30;;
72037;SDS011;59900;50.788;12.904;2023-09-19T00:28:59;4.27;;;1.63;;
72037;SDS011;59900;50.788;12.904;2023-09-19T00:31:29;3.10;;;1.63;;
72037;SDS011;59900;50.788;12.904;2023-09-19T00:33:55;3.55;;;1.70;;
72037;SDS011;59900;50.788;12.904;2023-09-19T00:36:25;4.40;;;1.30;;
72037;SDS011;59900;50.788;12.904;2023-09-19T00:38:50;4.30;;;1.47;;
72037;SDS011;59900;50.788;12.904;2023-09-19T00:41:15;4.60;;;1.40;;
72037;SDS011;59900;50.788;12.904;2023-09-19T00:43:40;3.50;;;1.53;;
72037;SDS011;59900;50.788;12.904;2023-09-19T00:46:06;4.40;;;1.40;;
72037;SDS011;59900;50.788;12.904;2023-09-19T00:48:31;3.97;;;1.80;;
72037;SDS011;59900;50.788;12.904;2023-09-19T00:51:04;3.42;;;1.50;;
72037;SDS011;59900;50.788;12.904;2023-09-19T00:53:29;3.75;;;1.45;;
72037;SDS011;59900;50.788;12.904;2023-09-19T00:55:56;3.67;;;1.65;;
72037;SDS011;59900;50.788;12.904;2023-09-19T00:58:21;3.50;;;1.40;;
72037;SDS011;59900;50.788;12.904;2023-09-19T01:00:50;2.60;;;1.40;;
72037;SDS011;59900;50.788;12.904;2023-09-19T01:03:15;3.00;;;1.60;;
72037;SDS011;59900;50.788;12.904;2023-09-19T01:05:43;3.05;;;1.00;;
72037;SDS011;59900;50.788;12.904;2023-09-19T01:08:08;2.93;;;1.20;;
72037;SDS011;59900;50.788;12.904;2023-09-19T01:10:36;3.20;;;1.30;;
72037;SDS011;59900;50.788;12.904;2023-09-19T01:13:13;3.15;;;1.58;;
72037;SDS011;59900;50.788;12.904;2023-09-19T01:21:27;3.07;;;1.27;;
72037;SDS011;59900;50.788;12.904;2023-09-19T01:27:42;3.63;;;1.30;;
72037;SDS011;59900;50.788;12.904;2023-09-19T01:30:32;4.22;;;1.60;;
72037;SDS011;59900;50.788;12.904;2023-09-19T01:33:00;3.30;;;1.42;;
72037;SDS011;59900;50.788;12.904;2023-09-19T01:35:26;5.43;;;1.17;;
72037;SDS011;59900;50.788;12.904;2023-09-19T01:37:51;2.73;;;1.13;;
72037;SDS011;59900;50.788;12.904;2023-09-19T01:40:18;4.43;;;1.52;;
72037;SDS011;59900;50.788;12.904;2023-09-19T01:48:12;3.97;;;1.45;;
72037;SDS011;59900;50.788;12.904;2023-09-19T01:50:47;4.50;;;1.70;;
72037;SDS011;59900;50.788;12.904;2023-09-19T01:53:25;5.88;;;1.27;;
72037;SDS011;59900;50.788;12.904;2023-09-19T01:55:55;4.22;;;1.65;;
72037;SDS011;59900;50.788;12.904;2023-09-19T01:58:39;2.67;;;1.37;;
72037;SDS011;59900;50.788;12.904;2023-09-19T02:01:08;3.88;;;1.33;;
72037;SDS011;59900;50.788;12.904;2023-09-19T02:03:38;5.78;;;1.52;;
72037;SDS011;59900;50.788;12.904;2023-09-19T02:06:04;3.40;;;1.65;;
72037;SDS011;59900;50.788;12.904;2023-09-19T02:08:30;3.23;;;1.40;;
72037;SDS011;59900;50.788;12.904;2023-09-19T02:10:56;3.50;;;1.20;;
72037;SDS011;59900;50.788;12.904;2023-09-19T02:13:21;4.00;;;1.40;;
72037;SDS011;59900;50.788;12.904;2023-09-19T02:15:53;3.22;;;1.45;;
72037;SDS011;59900;50.788;12.904;2023-09-19T02:18:18;5.73;;;1.30;;
72037;SDS011;59900;50.788;12.904;2023-09-19T02:20:44;3.72;;;1.50;;
72037;SDS011;59900;50.788;12.904;2023-09-19T02:23:11;4.15;;;1.30;;
72037;SDS011;59900;50.788;12.904;2023-09-19T02:25:37;3.22;;;1.42;;
72037;SDS011;59900;50.788;12.904;2023-09-19T02:28:04;3.77;;;1.50;;
72037;SDS011;59900;50.788;12.904;2023-09-19T02:30:30;3.35;;;1.73;;
72037;SDS011;59900;50.788;12.904;2023-09-19T02:32:56;3.05;;;1.52;;
72037;SDS011;59900;50.788;12.904;2023-09-19T02:35:21;4.43;;;1.50;;
72037;SDS011;59900;50.788;12.904;2023-09-19T02:37:47;4.57;;;1.53;;
72037;SDS011;59900;50.788;12.904;2023-09-19T02:40:12;3.07;;;1.50;;
72037;SDS011;59900;50.788;12.904;2023-09-19T02:42:47;3.65;;;1.58;;
72037;SDS011;59900;50.788;12.904;2023-09-19T02:45:15;3.50;;;1.50;;
72037;SDS011;59900;50.788;12.904;2023-09-19T02:47:43;4.47;;;1.52;;
72037;SDS011;59900;50.788;12.904;2023-09-19T02:50:08;3.17;;;1.52;;
72037;SDS011;59900;50.788;12.904;2023-09-19T02:52:36;3.90;;;1.50;;
72037;SDS011;59900;50.788;12.904;2023-09-19T02:55:01;4.23;;;1.67;;
72037;SDS011;59900;50.788;12.904;2023-09-19T02:57:29;3.58;;;1.75;;
72037;SDS011;59900;50.788;12.904;2023-09-19T02:59:54;4.93;;;1.80;;
72037;SDS011;59900;50.788;12.904;2023-09-19T03:02:19;3.73;;;1.53;;
72037;SDS011;59900;50.788;12.904;2023-09-19T03:04:49;3.33;;;1.48;;
72037;SDS011;59900;50.788;12.904;2023-09-19T03:07:16;5.00;;;1.63;;
72037;SDS011;59900;50.788;12.904;2023-09-19T03:09:42;3.90;;;1.70;;
72037;SDS011;59900;50.788;12.904;2023-09-19T03:12:08;4.50;;;1.50;;
72037;SDS011;59900;50.788;12.904;2023-09-19T03:14:33;5.13;;;1.93;;
72037;SDS011;59900;50.788;12.904;2023-09-19T03:17:00;3.42;;;1.50;;
72037;SDS011;59900;50.788;12.904;2023-09-19T03:19:25;3.80;;;1.60;;
72037;SDS011;59900;50.788;12.904;2023-09-19T03:21:51;6.18;;;1.50;;
72037;SDS011;59900;50.788;12.904;2023-09-19T03:24:16;5.83;;;1.80;;
72037;SDS011;59900;50.788;12.904;2023-09-19T03:26:42;3.10;;;1.40;;
72037;SDS011;59900;50.788;12.904;2023-09-19T03:29:07;4.53;;;1.50;;
72037;SDS011;59900;50.788;12.904;2023-09-19T03:31:33;4.00;;;1.85;;
72037;SDS011;59900;50.788;12.904;2023-09-19T03:34:01;5.75;;;2.00;;
72037;SDS011;59900;50.788;12.904;2023-09-19T03:36:28;3.85;;;1.98;;
72037;SDS011;59900;50.788;12.904;2023-09-19T03:38:57;7.80;;;1.90;;
72037;SDS011;59900;50.788;12.904;2023-09-19T03:41:22;2.97;;;1.42;;
72037;SDS011;59900;50.788;12.904;2023-09-19T03:43:48;3.40;;;1.80;;
72037;SDS011;59900;50.788;12.904;2023-09-19T03:46:14;5.17;;;1.87;;
72037;SDS011;59900;50.788;12.904;2023-09-19T03:48:40;8.73;;;2.10;;
72037;SDS011;59900;50.788;12.904;2023-09-19T03:51:05;5.80;;;1.80;;
72037;SDS011;59900;50.788;12.904;2023-09-19T03:53:30;4.23;;;1.60;;
72037;SDS011;59900;50.788;12.904;2023-09-19T03:55:56;4.72;;;1.92;;
72037;SDS011;59900;50.788;12.904;2023-09-19T03:58:22;3.83;;;1.80;;
72037;SDS011;59900;50.788;12.904;2023-09-19T04:00:47;5.70;;;2.00;;
72037;SDS011;59900;50.788;12.904;2023-09-19T04:03:14;5.03;;;2.20;;
72037;SDS011;59900;50.788;12.904;2023-09-19T04:05:45;4.88;;;1.95;;
72037;SDS011;59900;50.788;12.904;2023-09-19T04:08:11;3.90;;;2.03;;
72037;SDS011;59900;50.788;12.904;2023-09-19T04:10:37;4.13;;;2.03;;
72037;SDS011;59900;50.788;12.904;2023-09-19T04:13:02;5.07;;;2.00;;
72037;SDS011;59900;50.788;12.904;2023-09-19T04:15:28;6.93;;;1.88;;
72037;SDS011;59900;50.788;12.904;2023-09-19T04:17:54;4.20;;;2.20;;
72037;SDS011;59900;50.788;12.904;2023-09-19T04:20:20;4.87;;;2.10;;
72037;SDS011;59900;50.788;12.904;2023-09-19T04:22:47;6.20;;;2.20;;
72037;SDS011;59900;50.788;12.904;2023-09-19T04:25:12;4.40;;;2.17;;
72037;SDS011;59900;50.788;12.904;2023-09-19T04:27:38;4.65;;;1.90;;
72037;SDS011;59900;50.788;12.904;2023-09-19T04:30:03;3.80;;;1.93;;
72037;SDS011;59900;50.788;12.904;2023-09-19T04:32:35;6.35;;;2.28;;
72037;SDS011;59900;50.788;12.904;2023-09-19T04:35:01;6.82;;;1.63;;
72037;SDS011;59900;50.788;12.904;2023-09-19T04:37:30;4.90;;;1.50;;
72037;SDS011;59900;50.788;12.904;2023-09-19T04:39:55;3.03;;;1.63;;
72037;SDS011;59900;50.788;12.904;2023-09-19T04:42:21;4.80;;;1.60;;
72037;SDS011;59900;50.788;12.904;2023-09-19T04:44:46;4.13;;;1.83;;
72037;SDS011;59900;50.788;12.904;2023-09-19T04:47:14;7.03;;;2.22;;
72037;SDS011;59900;50.788;12.904;2023-09-19T04:49:41;4.25;;;2.15;;
72037;SDS011;59900;50.788;12.904;2023-09-19T04:52:06;6.10;;;1.90;;
72037;SDS011;59900;50.788;12.904;2023-09-19T04:54:31;9.97;;;2.00;;
72037;SDS011;59900;50.788;12.904;2023-09-19T04:56:58;6.35;;;2.22;;
72037;SDS011;59900;50.788;12.904;2023-09-19T04:59:24;9.17;;;2.17;;
72037;SDS011;59900;50.788;12.904;2023-09-19T05:01:49;4.97;;;1.70;;
72037;SDS011;59900;50.788;12.904;2023-09-19T05:04:14;4.77;;;1.70;;
72037;SDS011;59900;50.788;12.904;2023-09-19T05:06:40;4.32;;;1.60;;
72037;SDS011;59900;50.788;12.904;2023-09-19T05:09:05;4.23;;;1.80;;
72037;SDS011;59900;50.788;12.904;2023-09-19T05:11:31;4.20;;;1.80;;
72037;SDS011;59900;50.788;12.904;2023-09-19T05:13:56;5.17;;;1.80;;
72037;SDS011;59900;50.788;12.904;2023-09-19T05:16:21;2.53;;;1.43;;
72037;SDS011;59900;50.788;12.904;2023-09-19T05:18:47;4.40;;;1.98;;
72037;SDS011;59900;50.788;12.904;2023-09-19T05:21:12;3.77;;;1.70;;
72037;SDS011;59900;50.788;12.904;2023-09-19T05:23:38;4.27;;;1.90;;
72037;SDS011;59900;50.788;12.904;2023-09-19T05:26:03;4.67;;;2.37;;
72037;SDS011;59900;50.788;12.904;2023-09-19T05:28:29;6.43;;;2.10;;
72037;SDS011;59900;50.788;12.904;2023-09-19T05:30:54;4.67;;;1.90;;
72037;SDS011;59900;50.788;12.904;2023-09-19T05:33:21;4.97;;;2.08;;
72037;SDS011;59900;50.788;12.904;2023-09-19T05:35:50;5.00;;;2.00;;
72037;SDS011;59900;50.788;12.904;2023-09-19T05:38:15;5.83;;;1.63;;
72037;SDS011;59900;50.788;12.904;2023-09-19T05:40:44;5.85;;;2.08;;
72037;SDS011;59900;50.788;12.904;2023-09-19T05:43:10;5.65;;;2.20;;
72037;SDS011;59900;50.788;12.904;2023-09-19T05:45:35;10.03;;;2.40;;
72037;SDS011;59900;50.788;12.904;2023-09-19T05:48:08;4.10;;;1.65;;
72037;SDS011;59900;50.788;12.904;2023-09-19T05:50:34;5.80;;;1.60;;
72037;SDS011;59900;50.788;12.904;2023-09-19T05:52:59;4.90;;;2.20;;
72037;SDS011;59900;50.788;12.904;2023-09-19T05:55:25;5.93;;;2.00;;
72037;SDS011;59900;50.788;12.904;2023-09-19T05:57:50;5.00;;;2.30;;
72037;SDS011;59900;50.788;12.904;2023-09-19T06:00:17;5.35;;;2.03;;
72037;SDS011;59900;50.788;12.904;2023-09-19T06:02:44;6.13;;;1.67;;
72037;SDS011;59900;50.788;12.904;2023-09-19T06:05:09;5.07;;;1.58;;
72037;SDS011;59900;50.788;12.904;2023-09-19T06:07:35;5.13;;;1.90;;
72037;SDS011;59900;50.788;12.904;2023-09-19T06:10:04;4.07;;;1.70;;
72037;SDS011;59900;50.788;12.904;2023-09-19T06:12:33;4.47;;;1.85;;
72037;SDS011;59900;50.788;12.904;2023-09-19T06:15:03;3.90;;;1.90;;
72037;SDS011;59900;50.788;12.904;2023-09-19T06:17:30;4.30;;;1.90;;
72037;SDS011;59900;50.788;12.904;2023-09-19T06:19:56;7.30;;;1.80;;
72037;SDS011;59900;50.788;12.904;2023-09-19T06:22:21;7.00;;;2.10;;
72037;SDS011;59900;50.788;12.904;2023-09-19T06:24:47;4.63;;;2.00;;
72037;SDS011;59900;50.788;12.904;2023-09-19T06:27:13;4.65;;;2.15;;
72037;SDS011;59900;50.788;12.904;2023-09-19T06:29:38;4.20;;;1.90;;
72037;SDS011;59900;50.788;12.904;2023-09-19T06:32:07;4.50;;;2.00;;
72037;SDS011;59900;50.788;12.904;2023-09-19T06:34:33;5.40;;;1.88;;
72037;SDS011;59900;50.788;12.904;2023-09-19T06:36:59;5.87;;;2.13;;
72037;SDS011;59900;50.788;12.904;2023-09-19T06:39:25;5.27;;;2.40;;
72037;SDS011;59900;50.788;12.904;2023-09-19T06:41:51;4.97;;;2.23;;
72037;SDS011;59900;50.788;12.904;2023-09-19T06:44:18;3.33;;;1.67;;
72037;SDS011;59900;50.788;12.904;2023-09-19T06:46:43;4.47;;;2.10;;
72037;SDS011;59900;50.788;12.904;2023-09-19T06:49:11;4.45;;;2.03;;
72037;SDS011;59900;50.788;12.904;2023-09-19T06:51:38;4.65;;;1.90;;
72037;SDS011;59900;50.788;12.904;2023-09-19T06:54:03;4.57;;;1.80;;
72037;SDS011;59900;50.788;12.904;2023-09-19T06:56:30;3.92;;;1.50;;
72037;SDS011;59900;50.788;12.904;2023-09-19T06:58:56;3.80;;;1.73;;
72037;SDS011;59900;50.788;12.904;2023-09-19T07:01:21;5.77;;;2.20;;
72037;SDS011;59900;50.788;12.904;2023-09-19T07:03:46;3.47;;;1.40;;
72037;SDS011;59900;50.788;12.904;2023-09-19T07:06:11;4.10;;;1.50;;
72037;SDS011;59900;50.788;12.904;2023-09-19T07:08:37;4.60;;;1.77;;
72037;SDS011;59900;50.788;12.904;2023-09-19T07:11:03;4.03;;;1.50;;
72037;SDS011;59900;50.788;12.904;2023-09-19T07:13:31;4.32;;;1.45;;
72037;SDS011;59900;50.788;12.904;2023-09-19T07:15:58;4.37;;;2.10;;
72037;SDS011;59900;50.788;12.904;2023-09-19T07:18:24;3.35;;;1.77;;
72037;SDS011;59900;50.788;12.904;2023-09-19T07:20:50;4.27;;;1.80;;
72037;SDS011;59900;50.788;12.904;2023-09-19T07:23:18;3.43;;;1.60;;
72037;SDS011;59900;50.788;12.904;2023-09-19T07:25:45;5.07;;;1.90;;
72037;SDS011;59900;50.788;12.904;2023-09-19T07:28:11;5.00;;;1.80;;
72037;SDS011;59900;50.788;12.904;2023-09-19T07:30:36;4.25;;;1.55;;
72037;SDS011;59900;50.788;12.904;2023-09-19T07:33:02;3.40;;;1.80;;
72037;SDS011;59900;50.788;12.904;2023-09-19T07:35:29;3.70;;;1.55;;
72037;SDS011;59900;50.788;12.904;2023-09-19T07:37:54;4.27;;;1.87;;
72037;SDS011;59900;50.788;12.904;2023-09-19T07:40:21;3.75;;;1.85;;
72037;SDS011;59900;50.788;12.904;2023-09-19T07:42:46;4.83;;;2.03;;
72037;SDS011;59900;50.788;12.904;2023-09-19T07:45:12;6.13;;;1.80;;
72037;SDS011;59900;50.788;12.904;2023-09-19T07:47:40;4.85;;;1.88;;
72037;SDS011;59900;50.788;12.904;2023-09-19T07:50:15;4.57;;;1.70;;
72037;SDS011;59900;50.788;12.904;2023-09-19T07:52:41;5.22;;;1.60;;
72037;SDS011;59900;50.788;12.904;2023-09-19T07:55:07;5.15;;;1.80;;
72037;SDS011;59900;50.788;12.904;2023-09-19T07:57:34;5.17;;;1.80;;
72037;SDS011;59900;50.788;12.904;2023-09-19T08:00:01;6.10;;;2.00;;
72037;SDS011;59900;50.788;12.904;2023-09-19T08:02:29;4.00;;;1.90;;
72037;SDS011;59900;50.788;12.904;2023-09-19T08:04:55;2.90;;;1.60;;
72037;SDS011;59900;50.788;12.904;2023-09-19T08:07:22;3.60;;;1.80;;
72037;SDS011;59900;50.788;12.904;2023-09-19T08:09:48;2.60;;;1.48;;
72037;SDS011;59900;50.788;12.904;2023-09-19T08:12:13;3.57;;;1.60;;
72037;SDS011;59900;50.788;12.904;2023-09-19T08:14:39;2.97;;;1.50;;
72037;SDS011;59900;50.788;12.904;2023-09-19T08:17:06;3.05;;;1.63;;
72037;SDS011;59900;50.788;12.904;2023-09-19T08:19:33;4.57;;;1.67;;
72037;SDS011;59900;50.788;12.904;2023-09-19T08:21:58;4.20;;;1.90;;
72037;SDS011;59900;50.788;12.904;2023-09-19T08:24:27;3.70;;;1.50;;
72037;SDS011;59900;50.788;12.904;2023-09-19T08:26:57;4.85;;;1.20;;
72037;SDS011;59900;50.788;12.904;2023-09-19T08:29:23;4.22;;;1.38;;
72037;SDS011;59900;50.788;12.904;2023-09-19T08:31:58;3.40;;;1.40;;
72037;SDS011;59900;50.788;12.904;2023-09-19T08:34:24;5.10;;;1.40;;
72037;SDS011;59900;50.788;12.904;2023-09-19T08:36:50;3.10;;;1.60;;
72037;SDS011;59900;50.788;12.904;2023-09-19T08:39:17;3.42;;;1.70;;
72037;SDS011;59900;50.788;12.904;2023-09-19T08:41:43;4.70;;;1.80;;
72037;SDS011;59900;50.788;12.904;2023-09-19T08:44:09;3.73;;;1.70;;
72037;SDS011;59900;50.788;12.904;2023-09-19T08:46:35;3.67;;;1.40;;
72037;SDS011;59900;50.788;12.904;2023-09-19T08:49:08;3.07;;;1.60;;
72037;SDS011;59900;50.788;12.904;2023-09-19T08:51:47;3.65;;;1.50;;
72037;SDS011;59900;50.788;12.904;2023-09-19T08:54:24;4.05;;;1.63;;
72037;SDS011;59900;50.788;12.904;2023-09-19T08:56:54;3.08;;;1.73;;
72037;SDS011;59900;50.788;12.904;2023-09-19T08:59:22;3.10;;;1.45;;
72037;SDS011;59900;50.788;12.904;2023-09-19T09:01:52;4.77;;;1.70;;
72037;SDS011;59900;50.788;12.904;2023-09-19T09:04:19;3.70;;;1.50;;
72037;SDS011;59900;50.788;12.904;2023-09-19T09:06:45;2.88;;;1.65;;
72037;SDS011;59900;50.788;12.904;2023-09-19T09:09:14;3.15;;;1.15;;
72037;SDS011;59900;50.788;12.904;2023-09-19T09:11:40;3.53;;;1.27;;
72037;SDS011;59900;50.788;12.904;2023-09-19T09:14:06;3.67;;;1.83;;
72037;SDS011;59900;50.788;12.904;2023-09-19T09:16:35;3.63;;;1.70;;
72037;SDS011;59900;50.788;12.904;2023-09-19T09:19:00;3.37;;;1.27;;
72037;SDS011;59900;50.788;12.904;2023-09-19T09:21:26;4.38;;;1.60;;
72037;SDS011;59900;50.788;12.904;2023-09-19T09:23:52;3.13;;;1.70;;
72037;SDS011;59900;50.788;12.904;2023-09-19T09:26:31;3.13;;;1.60;;
72037;SDS011;59900;50.788;12.904;2023-09-19T09:29:10;3.90;;;1.40;;
72037;SDS011;59900;50.788;12.904;2023-09-19T09:31:35;2.25;;;1.20;;
72037;SDS011;59900;50.788;12.904;2023-09-19T09:34:02;4.15;;;1.30;;
72037;SDS011;59900;50.788;12.904;2023-09-19T09:36:34;5.27;;;1.73;;
72037;SDS011;59900;50.788;12.904;2023-09-19T09:39:01;5.05;;;1.40;;
72037;SDS011;59900;50.788;12.904;2023-09-19T09:41:40;3.20;;;1.73;;
72037;SDS011;59900;50.788;12.904;2023-09-19T09:44:16;3.73;;;1.73;;
72037;SDS011;59900;50.788;12.904;2023-09-19T09:46:45;3.38;;;1.50;;
72037;SDS011;59900;50.788;12.904;2023-09-19T09:49:15;5.05;;;1.50;;
72037;SDS011;59900;50.788;12.904;2023-09-19T09:52:03;2.78;;;1.52;;
72037;SDS011;59900;50.788;12.904;2023-09-19T09:54:34;3.67;;;1.60;;
72037;SDS011;59900;50.788;12.904;2023-09-19T09:57:07;3.13;;;1.63;;
72037;SDS011;59900;50.788;12.904;2023-09-19T09:59:45;2.85;;;1.20;;
72037;SDS011;59900;50.788;12.904;2023-09-19T10:02:15;5.85;;;1.40;;
72037;SDS011;59900;50.788;12.904;2023-09-19T10:04:54;4.28;;;1.55;;
72037;SDS011;59900;50.788;12.904;2023-09-19T10:07:41;3.20;;;1.30;;
72037;SDS011;59900;50.788;12.904;2023-09-19T10:10:13;3.93;;;1.30;;
72037;SDS011;59900;50.788;12.904;2023-09-19T10:12:45;3.20;;;1.17;;
72037;SDS011;59900;50.788;12.904;2023-09-19T10:15:13;2.78;;;1.38;;
72037;SDS011;59900;50.788;12.904;2023-09-19T10:17:41;4.32;;;1.10;;
72037;SDS011;59900;50.788;12.904;2023-09-19T10:20:09;3.42;;;1.65;;
72037;SDS011;59900;50.788;12.904;2023-09-19T10:22:47;3.27;;;1.50;;
72037;SDS011;59900;50.788;12.904;2023-09-19T10:25:24;2.88;;;1.50;;
72037;SDS011;59900;50.788;12.904;2023-09-19T10:27:50;3.13;;;1.30;;
72037;SDS011;59900;50.788;12.904;2023-09-19T10:30:18;4.47;;;1.40;;
72037;SDS011;59900;50.788;12.904;2023-09-19T10:32:45;2.42;;;1.20;;
72037;SDS011;59900;50.788;12.904;2023-09-19T10:35:12;3.23;;;1.40;;
72037;SDS011;59900;50.788;12.904;2023-09-19T10:37:42;3.17;;;1.48;;
72037;SDS011;59900;50.788;12.904;2023-09-19T10:40:15;2.92;;;1.40;;
72037;SDS011;59900;50.788;12.904;2023-09-19T10:42:41;3.72;;;1.70;;
72037;SDS011;59900;50.788;12.904;2023-09-19T10:45:07;4.33;;;1.50;;
72037;SDS011;59900;50.788;12.904;2023-09-19T10:47:38;3.25;;;1.38;;
72037;SDS011;59900;50.788;12.904;2023-09-19T10:50:03;3.60;;;1.60;;
72037;SDS011;59900;50.788;12.904;2023-09-19T10:52:31;3.33;;;1.35;;
72037;SDS011;59900;50.788;12.904;2023-09-19T10:54:59;5.82;;;1.48;;
72037;SDS011;59900;50.788;12.904;2023-09-19T10:57:26;3.25;;;1.30;;
72037;SDS011;59900;50.788;12.904;2023-09-19T11:00:05;5.20;;;1.50;;
72037;SDS011;59900;50.788;12.904;2023-09-19T11:05:36;3.13;;;1.25;;
72037;SDS011;59900;50.788;12.904;2023-09-19T11:08:11;3.20;;;1.30;;
72037;SDS011;59900;50.788;12.904;2023-09-19T11:10:47;4.55;;;1.33;;
72037;SDS011;59900;50.788;12.904;2023-09-19T11:13:23;3.57;;;1.60;;
72037;SDS011;59900;50.788;12.904;2023-09-19T11:26:47;3.40;;;1.60;;
72037;SDS011;59900;50.788;12.904;2023-09-19T11:29:25;4.97;;;1.45;;
72037;SDS011;59900;50.788;12.904;2023-09-19T11:31:56;3.38;;;1.58;;
72037;SDS011;59900;50.788;12.904;2023-09-19T11:39:39;4.90;;;1.57;;
72037;SDS011;59900;50.788;12.904;2023-09-19T11:48:10;3.42;;;1.45;;
72037;SDS011;59900;50.788;12.904;2023-09-19T11:50:41;5.63;;;1.83;;
72037;SDS011;59900;50.788;12.904;2023-09-19T11:53:09;6.47;;;1.93;;
72037;SDS011;59900;50.788;12.904;2023-09-19T11:55:38;3.17;;;1.65;;
72037;SDS011;59900;50.788;12.904;2023-09-19T11:58:06;4.43;;;1.80;;
72037;SDS011;59900;50.788;12.904;2023-09-19T12:00:33;6.13;;;2.40;;
72037;SDS011;59900;50.788;12.904;2023-09-19T12:03:01;4.95;;;2.40;;
72037;SDS011;59900;50.788;12.904;2023-09-19T12:05:33;3.57;;;2.10;;
72037;SDS011;59900;50.788;12.904;2023-09-19T12:07:59;5.43;;;2.20;;
72037;SDS011;59900;50.788;12.904;2023-09-19T12:10:25;4.60;;;2.20;;
72037;SDS011;59900;50.788;12.904;2023-09-19T12:12:51;6.78;;;1.77;;
72037;SDS011;59900;50.788;12.904;2023-09-19T12:15:24;4.50;;;1.87;;
72037;SDS011;59900;50.788;12.904;2023-09-19T12:17:53;5.10;;;2.10;;
72037;SDS011;59900;50.788;12.904;2023-09-19T12:20:19;4.22;;;1.70;;
72037;SDS011;59900;50.788;12.904;2023-09-19T12:22:46;4.85;;;1.95;;
72037;SDS011;59900;50.788;12.904;2023-09-19T12:25:12;5.33;;;2.00;;
72037;SDS011;59900;50.788;12.904;2023-09-19T12:27:44;5.72;;;1.48;;
72037;SDS011;59900;50.788;12.904;2023-09-19T12:30:14;4.18;;;1.70;;
72037;SDS011;59900;50.788;12.904;2023-09-19T12:32:42;4.88;;;1.90;;
72037;SDS011;59900;50.788;12.904;2023-09-19T12:35:07;4.33;;;1.80;;
72037;SDS011;59900;50.788;12.904;2023-09-19T12:37:35;4.78;;;1.60;;
72037;SDS011;59900;50.788;12.904;2023-09-19T12:40:05;3.47;;;1.60;;
72037;SDS011;59900;50.788;12.904;2023-09-19T12:42:42;3.45;;;1.40;;
72037;SDS011;59900;50.788;12.904;2023-09-19T12:45:09;3.47;;;1.50;;
72037;SDS011;59900;50.788;12.904;2023-09-19T12:47:35;5.40;;;2.40;;
72037;SDS011;59900;50.788;12.904;2023-09-19T12:52:39;5.72;;;2.20;;
72037;SDS011;59900;50.788;12.904;2023-09-19T12:55:05;3.90;;;1.73;;
72037;SDS011;59900;50.788;12.904;2023-09-19T12:57:35;5.18;;;1.80;;
72037;SDS011;59900;50.788;12.904;2023-09-19T13:00:02;3.70;;;2.00;;
72037;SDS011;59900;50.788;12.904;2023-09-19T13:02:30;6.40;;;1.73;;
72037;SDS011;59900;50.788;12.904;2023-09-19T13:04:56;4.33;;;1.97;;
72037;SDS011;59900;50.788;12.904;2023-09-19T13:07:40;3.55;;;1.70;;
72037;SDS011;59900;50.788;12.904;2023-09-19T13:10:11;5.47;;;2.00;;
72037;SDS011;59900;50.788;12.904;2023-09-19T13:12:39;5.63;;;2.08;;
72037;SDS011;59900;50.788;12.904;2023-09-19T13:15:10;4.83;;;2.03;;
72037;SDS011;59900;50.788;12.904;2023-09-19T13:17:44;4.35;;;1.80;;
72037;SDS011;59900;50.788;12.904;2023-09-19T13:20:26;5.05;;;1.88;;
72037;SDS011;59900;50.788;12.904;2023-09-19T13:22:57;4.70;;;1.58;;
72037;SDS011;59900;50.788;12.904;2023-09-19T13:25:31;3.42;;;1.55;;
72037;SDS011;59900;50.788;12.904;2023-09-19T13:27:58;4.10;;;1.67;;
72037;SDS011;59900;50.788;12.904;2023-09-19T13:30:25;3.55;;;1.70;;
72037;SDS011;59900;50.788;12.904;2023-09-19T13:32:52;4.32;;;1.77;;
72037;SDS011;59900;50.788;12.904;2023-09-19T13:35:30;4.78;;;2.10;;
72037;SDS011;59900;50.788;12.904;2023-09-19T13:37:55;4.30;;;1.70;;
72037;SDS011;59900;50.788;12.904;2023-09-19T13:40:21;4.33;;;1.60;;
72037;SDS011;59900;50.788;12.904;2023-09-19T13:42:46;5.70;;;2.17;;
72037;SDS011;59900;50.788;12.904;2023-09-19T13:45:11;8.30;;;1.90;;
72037;SDS011;59900;50.788;12.904;2023-09-19T13:47:37;4.38;;;1.85;;
72037;SDS011;59900;50.788;12.904;2023-09-19T13:50:04;5.72;;;1.70;;
72037;SDS011;59900;50.788;12.904;2023-09-19T13:52:30;4.07;;;1.80;;
72037;SDS011;59900;50.788;12.904;2023-09-19T13:54:56;4.53;;;2.17;;
72037;SDS011;59900;50.788;12.904;2023-09-19T13:57:22;4.32;;;1.70;;
72037;SDS011;59900;50.788;12.904;2023-09-19T13:59:47;3.67;;;1.60;;
72037;SDS011;59900;50.788;12.904;2023-09-19T14:02:13;4.93;;;1.63;;
72037;SDS011;59900;50.788;12.904;2023-09-19T14:04:39;5.27;;;1.87;;
72037;SDS011;59900;50.788;12.904;2023-09-19T14:07:05;4.82;;;2.10;;
72037;SDS011;59900;50.788;12.904;2023-09-19T14:09:32;5.15;;;2.38;;
72037;SDS011;59900;50.788;12.904;2023-09-19T14:11:57;4.27;;;2.27;;
72037;SDS011;59900;50.788;12.904;2023-09-19T14:14:22;8.23;;;1.90;;
72037;SDS011;59900;50.788;12.904;2023-09-19T14:16:48;4.03;;;1.97;;
72037;SDS011;59900;50.788;12.904;2023-09-19T14:19:13;5.03;;;2.03;;
72037;SDS011;59900;50.788;12.904;2023-09-19T14:21:41;4.90;;;1.85;;
72037;SDS011;59900;50.788;12.904;2023-09-19T14:24:07;7.32;;;2.53;;
72037;SDS011;59900;50.788;12.904;2023-09-19T14:26:37;3.97;;;1.80;;
72037;SDS011;59900;50.788;12.904;2023-09-19T14:29:05;6.17;;;1.90;;
72037;SDS011;59900;50.788;12.904;2023-09-19T14:31:32;6.40;;;1.90;;
72037;SDS011;59900;50.788;12.904;2023-09-19T14:33:58;4.35;;;2.20;;
72037;SDS011;59900;50.788;12.904;2023-09-19T14:36:24;7.17;;;2.20;;
72037;SDS011;59900;50.788;12.904;2023-09-19T14:38:52;6.82;;;2.05;;
72037;SDS011;59900;50.788;12.904;2023-09-19T14:41:22;4.80;;;2.58;;
72037;SDS011;59900;50.788;12.904;2023-09-19T14:43:48;5.18;;;2.20;;
72037;SDS011;59900;50.788;12.904;2023-09-19T14:46:14;5.18;;;2.20;;
72037;SDS011;59900;50.788;12.904;2023-09-19T14:48:39;5.23;;;2.30;;
72037;SDS011;59900;50.788;12.904;2023-09-19T14:51:05;4.60;;;2.10;;
72037;SDS011;59900;50.788;12.904;2023-09-19T14:53:31;4.47;;;1.70;;
72037;SDS011;59900;50.788;12.904;2023-09-19T14:55:59;5.80;;;2.38;;
72037;SDS011;59900;50.788;12.904;2023-09-19T14:58:25;4.20;;;2.07;;
72037;SDS011;59900;50.788;12.904;2023-09-19T15:00:54;5.47;;;2.10;;
72037;SDS011;59900;50.788;12.904;2023-09-19T15:03:28;5.78;;;2.80;;
72037;SDS011;59900;50.788;12.904;2023-09-19T15:05:58;4.82;;;1.80;;
72037;SDS011;59900;50.788;12.904;2023-09-19T15:08:25;6.53;;;2.28;;
72037;SDS011;59900;50.788;12.904;2023-09-19T15:10:50;5.27;;;1.90;;
72037;SDS011;59900;50.788;12.904;2023-09-19T15:13:18;5.82;;;2.20;;
72037;SDS011;59900;50.788;12.904;2023-09-19T15:15:45;4.93;;;2.30;;
72037;SDS011;59900;50.788;12.904;2023-09-19T15:18:13;4.75;;;1.90;;
72037;SDS011;59900;50.788;12.904;2023-09-19T15:20:43;5.28;;;2.33;;